• Join FlightAware (Why Join?)
  • Login
  • US Flag 
11:31AM EST


 

Airport Tracker/Info


-or-


 

Live Flight TrackerFlight Track Log ✈ N735YG ✈ 13-Jul-2013 ✈ KTDZ - KBTL

Flight Track Log - Related Links

Times and Time Zones

All times are in EDT time to prevent confusion due to time zone crossing. See the N735YG flight status page for this flight to view local times or setup timezone preferences in your user account.

Time Position Orientation Groundspeed Altitude Reporting Facility
EDT Latitude Longitude Course Direction KTS MPH feet Rate Location/Type
01:41PM 41.7583 -83.7544 298° West 147 169 6,400  Level Chicago Center
01:42PM 41.7772 -83.8031 298° West 147 169 6,400  Level Chicago Center
01:43PM 41.7953 -83.8531 296° West 148 170 6,400  Level Chicago Center
01:44PM 41.8128 -83.9019 296° West 148 170 6,400  Level Chicago Center
01:45PM 41.8347 -83.9600 297° West 146 168 6,400  Level Chicago Center
01:46PM 41.8525 -84.0072 297° West 145 167 6,400  Level Chicago Center
01:47PM 41.8711 -84.0550 298° West 144 166 6,400  Level Chicago Center
01:48PM 41.8889 -84.1036 296° West 145 167 6,400  Level Chicago Center
01:49PM 41.9069 -84.1514 297° West 145 167 6,400  Level Chicago Center
01:50PM 41.9239 -84.2006 295° West 145 167 6,400  Level Chicago Center
01:51PM 41.9461 -84.2583 297° West 145 167 6,400  Level Chicago Center
01:53PM 41.9636 -84.3056 297° West 144 166 6,400  Level Chicago Center
01:54PM 41.9803 -84.3539 295° West 144 166 6,400  Level Chicago Center
01:55PM 41.9983 -84.4017 297° West 143 165 6,400  Level Chicago Center
01:56PM 42.0167 -84.4494 297° West 144 166 6,400  Level Chicago Center
01:57PM 42.0347 -84.4981 297° West 145 167 6,400  Level Chicago Center
01:58PM 42.0550 -84.5569 295° West 145 167 6,400  Level Chicago Center
01:59PM 42.0731 -84.6039 297° West 144 166 6,400 -240 Level Chicago Center
02:00PM 42.0917 -84.6556 296° West 147 169 6,000 -420 Descending Chicago Center
02:01PM 42.1108 -84.7083 296° West 152 175 5,600 -480 Descending Chicago Center
02:02PM 42.1294 -84.7600 296° West 154 177 5,100 -360 Descending Chicago Center
02:03PM 42.1483 -84.8086 298° West 152 175 4,900 -300 Descending Chicago Center
02:04PM 42.1675 -84.8656 294° West 144 166 4,600 -420 Descending Chicago Center
02:05PM 42.1853 -84.9181 295° West 151 174 4,100 -480 Descending Chicago Center
02:06PM 42.1906 -84.9717 278° West 158 182 3,700 -420 Descending Chicago Center
02:07PM 42.1872 -85.0272 265° West 154 177 3,300 -420 Descending Chicago Center
02:08PM 42.2131 -85.0719 308° West 152 175 2,900 -360 Descending Chicago Center
02:09PM 42.2392 -85.1206 306° West 141 162 2,600 -240 Descending Chicago Center
02:10PM 42.2611 -85.1667 303° West 142 163 2,500 -360 Descending Chicago Center
02:11PM 42.2850 -85.2125 305° West 145 167 1,900 -480 Descending Chicago Center
02:12PM 42.3094 -85.2556 308° West 146 168 1,600 -240 Descending Chicago Center
02:13PM 42.3228 -85.2889 298° West 116 133 1,500 -180 Descending Chicago Center
02:14PM 42.3344 -85.3075 310° West 87 100 1,300 -120 Descending Chicago Center
02:15PM 42.3258 -85.2769 111° Southeast 86 99 1,300  Level Chicago Center